Time;durP1;ratioP1;P1;durP2;ratioP2;P2;SDS_P1;SDS_P2;PMS_P1;PMS_P2;Temp;Humidity;BMP_temperature;BMP_pressure;BME280_temperature;BME280_humidity;BME280_pressure;Samples;Min_cycle;Max_cycle;Signal;HPM_P1;HPM_P2
2022/11/30 00:00:03;;;;;;;15.05;7.13;;;8.70;99.90;;;;;;4996358;28;20030;-45
2022/11/30 00:02:29;;;;;;;14.18;6.53;;;8.70;99.90;;;;;;4994796;28;20027;-42
2022/11/30 00:04:55;;;;;;;13.25;6.63;;;8.70;99.90;;;;;;4991036;28;20494;-43
2022/11/30 00:07:20;;;;;;;11.45;6.65;;;8.60;99.90;;;;;;4995235;28;20061;-49
2022/11/30 00:09:46;;;;;;;14.98;7.30;;;8.60;99.90;;;;;;4996123;28;20502;-43
2022/11/30 00:12:11;;;;;;;13.93;7.28;;;8.60;99.90;;;;;;4996542;28;20038;-49
2022/11/30 00:14:37;;;;;;;10.90;6.40;;;8.60;99.90;;;;;;4988868;28;20018;-36
2022/11/30 00:17:02;;;;;;;18.67;7.18;;;8.60;99.90;;;;;;4988467;28;20494;-32
2022/11/30 00:19:28;;;;;;;14.57;7.10;;;8.70;99.90;;;;;;4992225;28;20114;-31
2022/11/30 00:21:54;;;;;;;16.65;7.60;;;8.70;99.90;;;;;;4997059;28;20474;-31
2022/11/30 00:24:19;;;;;;;12.27;7.50;;;8.70;99.90;;;;;;4993201;28;20127;-31
2022/11/30 00:26:45;;;;;;;17.63;8.68;;;8.70;99.90;;;;;;4994461;28;20573;-31
2022/11/30 00:29:11;;;;;;;17.63;8.00;;;8.70;99.90;;;;;;4992520;28;20117;-44
2022/11/30 00:31:37;;;;;;;19.00;8.25;;;8.80;99.90;;;;;;4994415;28;20057;-44
2022/11/30 00:34:02;;;;;;;16.10;7.93;;;8.80;99.90;;;;;;4994167;28;20030;-43
2022/11/30 00:36:28;;;;;;;12.77;8.05;;;8.80;99.90;;;;;;4993250;28;20379;-43
2022/11/30 00:38:54;;;;;;;16.35;8.43;;;8.80;99.90;;;;;;4990237;28;20030;-43
2022/11/30 00:41:20;;;;;;;19.30;9.50;;;8.70;99.90;;;;;;4995670;28;20065;-45
2022/11/30 00:43:46;;;;;;;16.75;8.40;;;8.70;99.90;;;;;;4994834;28;20378;-44
2022/11/30 00:46:12;;;;;;;14.00;8.30;;;8.70;99.90;;;;;;4976494;28;20026;-45
2022/11/30 00:48:39;;;;;;;15.98;8.27;;;8.70;99.90;;;;;;4993166;28;20360;-42
2022/11/30 00:51:05;;;;;;;16.67;8.27;;;8.70;99.90;;;;;;4970725;28;20568;-37
2022/11/30 00:53:31;;;;;;;16.60;9.02;;;8.70;99.90;;;;;;4992920;28;20387;-49
2022/11/30 00:55:57;;;;;;;19.83;9.32;;;8.70;99.90;;;;;;4995421;28;20019;-42
2022/11/30 00:58:22;;;;;;;20.17;9.60;;;8.80;99.90;;;;;;4975115;28;20049;-43
2022/11/30 01:00:48;;;;;;;17.75;9.68;;;8.80;99.90;;;;;;4989738;28;20035;-47
2022/11/30 01:03:14;;;;;;;17.05;8.93;;;8.90;99.90;;;;;;4989877;28;20312;-44
2022/11/30 01:05:42;;;;;;;17.88;9.05;;;8.90;99.90;;;;;;4982070;28;20026;-48
2022/11/30 01:08:09;;;;;;;18.42;10.55;;;8.90;99.90;;;;;;4991095;28;20110;-45
2022/11/30 01:10:37;;;;;;;19.67;10.27;;;8.90;99.90;;;;;;4988734;28;20884;-43
2022/11/30 01:13:03;;;;;;;26.13;11.23;;;8.80;99.90;;;;;;4991945;28;20026;-41
2022/11/30 01:15:30;;;;;;;19.95;10.98;;;8.80;99.90;;;;;;4993147;28;20410;-46
2022/11/30 01:17:57;;;;;;;24.15;10.13;;;8.80;99.90;;;;;;4989413;28;20500;-43
2022/11/30 01:20:23;;;;;;;22.55;9.85;;;8.80;99.90;;;;;;4993520;28;20386;-42
2022/11/30 01:22:48;;;;;;;20.13;10.45;;;8.80;99.90;;;;;;4994268;28;20039;-43
2022/11/30 01:25:14;;;;;;;22.10;10.75;;;8.90;99.90;;;;;;4993730;28;20049;-44
2022/11/30 01:27:40;;;;;;;20.70;10.02;;;8.90;99.90;;;;;;4998198;28;20029;-44
2022/11/30 01:30:07;;;;;;;23.10;10.10;;;8.90;99.90;;;;;;4973090;28;20102;-43
2022/11/30 01:35:16;;;;;;;18.45;10.57;;;9.00;99.90;;;;;;4993804;28;20057;-42
2022/11/30 01:37:42;;;;;;;16.85;9.70;;;9.00;99.90;;;;;;4993659;28;20026;-43
2022/11/30 01:40:09;;;;;;;17.63;9.73;;;9.00;99.90;;;;;;4994216;28;20114;-44
2022/11/30 01:42:36;;;;;;;18.58;9.30;;;8.90;99.90;;;;;;4994861;28;20038;-43
2022/11/30 01:45:04;;;;;;;20.60;9.98;;;9.00;99.90;;;;;;4993397;28;20030;-49
2022/11/30 01:47:56;;;;;;;19.27;10.15;;;9.00;99.90;;;;;;4994519;28;20026;-41
2022/11/30 01:50:31;;;;;;;22.00;10.40;;;9.00;99.90;;;;;;4973213;28;20042;-43
2022/11/30 01:52:56;;;;;;;19.13;9.95;;;9.00;99.90;;;;;;4992470;28;20462;-43
2022/11/30 01:55:36;;;;;;;25.23;11.32;;;9.00;99.90;;;;;;4993534;28;20073;-36
2022/11/30 01:58:08;;;;;;;20.13;10.32;;;9.00;99.90;;;;;;4994285;28;20040;-36
2022/11/30 02:00:34;;;;;;;21.13;11.00;;;9.00;99.90;;;;;;4993176;28;20034;-41
2022/11/30 02:03:18;;;;;;;18.00;9.85;;;9.00;99.90;;;;;;4992321;28;20490;-40
2022/11/30 02:05:44;;;;;;;21.30;10.23;;;9.00;99.90;;;;;;4974665;28;20383;-41
2022/11/30 02:08:10;;;;;;;23.88;10.70;;;9.00;99.90;;;;;;4974744;28;20038;-43
2022/11/30 02:10:41;;;;;;;17.95;9.85;;;8.90;99.90;;;;;;4974927;28;20035;-43
2022/11/30 02:13:36;;;;;;;18.48;9.75;;;8.90;99.90;;;;;;4981783;28;20038;-46
2022/11/30 02:16:10;;;;;;;22.92;10.27;;;9.00;99.90;;;;;;4994207;28;20038;-42
2022/11/30 02:19:10;;;;;;;20.35;9.90;;;9.00;99.90;;;;;;4993004;28;20038;-42
2022/11/30 02:21:58;;;;;;;21.98;10.63;;;9.10;99.90;;;;;;4994240;28;20038;-47
2022/11/30 02:24:50;;;;;;;17.88;9.98;;;9.10;99.90;;;;;;4988595;28;20394;-43
2022/11/30 02:27:34;;;;;;;23.92;10.23;;;9.00;99.90;;;;;;4951461;28;20055;-42
2022/11/30 02:30:13;;;;;;;18.92;9.43;;;9.00;99.90;;;;;;4971485;28;20379;-45
2022/11/30 02:32:51;;;;;;;18.17;9.07;;;9.10;99.90;;;;;;4971501;28;20038;-39
2022/11/30 02:35:20;;;;;;;19.80;10.50;;;9.10;99.90;;;;;;4972086;28;20031;-42
2022/11/30 02:37:47;;;;;;;26.13;11.75;;;9.00;99.90;;;;;;4974229;28;20027;-35
2022/11/30 02:40:15;;;;;;;21.27;10.37;;;9.00;99.90;;;;;;4974005;28;20031;-44
2022/11/30 02:42:41;;;;;;;21.98;10.65;;;9.00;99.90;;;;;;4973054;28;20338;-43
2022/11/30 02:45:08;;;;;;;21.45;10.40;;;8.90;99.90;;;;;;4974190;28;20031;-39
2022/11/30 02:47:53;;;;;;;18.00;9.68;;;8.90;99.90;;;;;;4973246;28;20395;-37
2022/11/30 02:50:32;;;;;;;22.25;10.40;;;9.00;99.90;;;;;;4972423;28;20041;-38
2022/11/30 02:52:58;;;;;;;17.95;9.07;;;9.00;99.90;;;;;;4973910;28;20113;-38
2022/11/30 02:55:23;;;;;;;19.58;10.55;;;9.00;99.90;;;;;;4974003;28;20034;-38
2022/11/30 02:57:49;;;;;;;20.35;10.43;;;9.00;99.90;;;;;;4973437;28;20034;-36
2022/11/30 03:00:15;;;;;;;22.98;10.70;;;9.00;99.90;;;;;;4973921;28;20125;-33
2022/11/30 03:02:41;;;;;;;19.00;9.80;;;9.00;99.90;;;;;;4976217;28;20372;-38
2022/11/30 03:05:08;;;;;;;21.02;10.68;;;9.00;99.90;;;;;;4977081;28;20026;-39
2022/11/30 03:07:34;;;;;;;19.92;10.15;;;9.00;99.90;;;;;;4975634;28;20027;-36
2022/11/30 03:09:59;;;;;;;23.25;10.25;;;9.00;99.90;;;;;;4974861;28;20027;-40
2022/11/30 03:12:25;;;;;;;19.38;10.18;;;9.00;99.90;;;;;;4959540;28;20022;-35
2022/11/30 03:14:51;;;;;;;21.50;10.85;;;9.00;99.90;;;;;;4973416;28;20037;-37
2022/11/30 03:17:17;;;;;;;20.80;9.73;;;9.00;99.90;;;;;;4974288;28;20497;-38
2022/11/30 03:19:42;;;;;;;21.08;10.07;;;9.00;99.90;;;;;;4977614;28;20030;-36
2022/11/30 03:22:08;;;;;;;18.02;10.18;;;9.00;99.90;;;;;;4979196;28;20037;-38
2022/11/30 03:24:34;;;;;;;14.77;8.90;;;9.00;99.90;;;;;;4974487;28;20100;-38
2022/11/30 03:26:59;;;;;;;24.27;10.93;;;9.00;99.90;;;;;;4993778;28;20042;-40
2022/11/30 03:29:25;;;;;;;20.90;9.02;;;9.00;99.90;;;;;;4995032;28;20026;-37
2022/11/30 03:31:50;;;;;;;26.15;10.00;;;9.10;99.90;;;;;;4972959;28;20128;-42
2022/11/30 03:34:18;;;;;;;25.38;11.57;;;9.10;99.90;;;;;;4994123;28;20023;-41
2022/11/30 03:36:44;;;;;;;;;;;9.00;99.90;;;;;;4995977;28;20061;-37
2022/11/30 03:39:09;;;;;;;21.80;9.80;;;9.00;99.90;;;;;;4995884;28;20392;-31
2022/11/30 03:41:35;;;;;;;26.40;9.90;;;8.90;99.90;;;;;;4996789;28;20122;-36
2022/11/30 03:44:01;;;;;;;21.00;10.90;;;8.90;99.90;;;;;;4996582;28;20027;-39
2022/11/30 03:46:27;;;;;;;21.02;9.30;;;8.90;99.90;;;;;;4995745;28;20117;-38
2022/11/30 03:48:53;;;;;;;22.45;10.77;;;8.90;99.90;;;;;;4978005;28;20549;-34
2022/11/30 03:51:18;;;;;;;23.27;11.07;;;8.90;99.90;;;;;;4995915;28;20025;-36
2022/11/30 03:53:44;;;;;;;25.55;11.55;;;8.90;99.90;;;;;;4996540;28;20463;-38
2022/11/30 03:56:10;;;;;;;25.58;11.15;;;8.90;99.90;;;;;;4995510;28;20026;-38
2022/11/30 03:58:37;;;;;;;23.42;10.70;;;8.90;99.90;;;;;;4996763;28;20022;-33
2022/11/30 04:01:15;;;;;;;24.42;11.23;;;8.90;99.90;;;;;;4996171;28;20026;-39
2022/11/30 04:03:41;;;;;;;22.50;10.45;;;8.80;99.90;;;;;;4996340;28;20031;-37
2022/11/30 04:06:09;;;;;;;21.58;11.02;;;8.90;99.90;;;;;;4975730;28;20019;-37
2022/11/30 04:08:36;;;;;;;19.90;10.20;;;8.90;99.90;;;;;;4993982;28;20021;-40
2022/11/30 04:11:03;;;;;;;24.52;11.32;;;8.90;99.90;;;;;;4976425;28;20038;-38
2022/11/30 04:13:30;;;;;;;21.15;10.52;;;8.90;99.90;;;;;;4994226;28;20034;-37
2022/11/30 04:16:14;;;;;;;24.75;11.65;;;8.90;99.90;;;;;;4994118;28;20034;-38
2022/11/30 04:18:40;;;;;;;21.38;10.20;;;8.90;99.90;;;;;;4994200;28;20509;-34
2022/11/30 04:21:07;;;;;;;22.58;10.30;;;8.90;99.90;;;;;;4994502;28;20031;-38
2022/11/30 04:23:35;;;;;;;24.17;11.07;;;8.90;99.90;;;;;;5004554;28;20023;-45
2022/11/30 04:26:05;;;;;;;28.77;11.93;;;8.90;99.90;;;;;;4976463;28;20649;-36
2022/11/30 04:28:31;;;;;;;21.48;10.77;;;8.90;99.90;;;;;;4993521;28;20058;-40
2022/11/30 04:30:59;;;;;;;22.88;11.35;;;8.90;99.90;;;;;;4993889;28;20030;-39
2022/11/30 04:33:24;;;;;;;23.83;10.63;;;8.90;99.90;;;;;;4994453;28;20487;-36
2022/11/30 04:35:55;;;;;;;24.63;11.65;;;8.80;99.90;;;;;;4994710;28;20041;-42
2022/11/30 04:38:21;;;;;;;25.45;11.27;;;8.80;99.90;;;;;;4976728;28;20125;-41
2022/11/30 04:40:46;;;;;;;24.15;10.82;;;8.70;99.90;;;;;;4995877;28;20379;-35
2022/11/30 04:43:12;;;;;;;25.60;12.27;;;8.70;99.90;;;;;;4994864;28;20022;-37
2022/11/30 04:45:39;;;;;;;21.30;11.35;;;8.60;99.90;;;;;;4995651;28;20501;-38
2022/11/30 04:48:05;;;;;;;20.98;10.07;;;8.60;99.90;;;;;;4994451;28;20037;-36
2022/11/30 04:50:31;;;;;;;22.52;11.43;;;8.60;99.90;;;;;;4995299;28;20029;-42
2022/11/30 04:52:56;;;;;;;20.77;10.25;;;8.70;99.90;;;;;;4995094;28;20022;-37
2022/11/30 04:55:23;;;;;;;22.42;10.30;;;8.60;99.90;;;;;;5007471;28;20026;-32
2022/11/30 04:57:48;;;;;;;23.80;10.95;;;8.70;99.90;;;;;;5000312;28;20471;-39
2022/11/30 05:00:16;;;;;;;21.10;9.52;;;8.70;99.90;;;;;;4992310;28;20026;-41
2022/11/30 05:02:42;;;;;;;22.77;10.48;;;8.60;99.90;;;;;;4991506;28;20053;-41
2022/11/30 05:05:08;;;;;;;20.65;10.88;;;8.70;99.90;;;;;;4994854;28;20027;-43
2022/11/30 05:07:33;;;;;;;21.10;10.57;;;8.70;99.90;;;;;;4992942;28;20026;-41
2022/11/30 05:09:59;;;;;;;19.10;9.68;;;8.70;99.90;;;;;;4995163;28;20109;-45
2022/11/30 05:12:25;;;;;;;20.40;10.18;;;8.70;99.90;;;;;;4966837;28;20594;-42
2022/11/30 05:14:50;;;;;;;19.85;9.40;;;8.70;99.90;;;;;;4993306;28;20030;-55
2022/11/30 05:17:16;;;;;;;25.90;10.32;;;8.70;99.90;;;;;;4992954;28;20037;-41
2022/11/30 05:19:42;;;;;;;19.63;10.35;;;8.60;99.90;;;;;;4977236;28;20034;-43
2022/11/30 05:22:08;;;;;;;25.40;11.00;;;8.60;99.90;;;;;;4994066;28;20398;-42
2022/11/30 05:24:33;;;;;;;23.98;11.60;;;8.60;99.90;;;;;;4993342;28;20023;-38
2022/11/30 05:26:59;;;;;;;24.27;11.98;;;8.60;99.90;;;;;;4992728;28;20054;-39
2022/11/30 05:29:25;;;;;;;26.27;10.50;;;8.60;99.90;;;;;;4992146;28;20372;-42
2022/11/30 05:31:50;;;;;;;22.02;11.25;;;8.60;99.90;;;;;;4993514;28;20093;-35
2022/11/30 05:34:16;;;;;;;22.10;11.50;;;8.70;99.90;;;;;;4990436;28;20510;-39
2022/11/30 05:36:42;;;;;;;30.52;12.13;;;8.60;99.90;;;;;;4991318;28;20030;-37
2022/11/30 05:39:07;;;;;;;24.35;10.57;;;8.60;99.90;;;;;;4994314;28;20372;-37
2022/11/30 05:41:33;;;;;;;23.00;11.07;;;8.60;99.90;;;;;;4993216;28;20027;-31
2022/11/30 05:43:58;;;;;;;19.50;10.73;;;8.60;99.90;;;;;;4993456;28;20026;-35
2022/11/30 05:46:24;;;;;;;24.55;11.07;;;8.50;99.90;;;;;;4990782;28;20033;-38
2022/11/30 05:48:50;;;;;;;19.48;10.63;;;8.50;99.90;;;;;;4992280;28;20027;-37
2022/11/30 05:51:18;;;;;;;27.92;10.80;;;8.40;99.90;;;;;;4992239;28;20065;-39
2022/11/30 05:53:44;;;;;;;21.23;9.63;;;8.40;99.90;;;;;;4992522;28;20397;-38
2022/11/30 05:56:12;;;;;;;21.35;9.70;;;8.30;99.90;;;;;;5005838;28;20081;-49
2022/11/30 05:58:38;;;;;;;21.60;11.23;;;8.30;99.90;;;;;;4992145;28;20034;-37
2022/11/30 06:01:04;;;;;;;23.98;11.43;;;8.30;99.90;;;;;;4993099;28;20062;-38
2022/11/30 06:03:32;;;;;;;26.00;11.45;;;8.20;99.90;;;;;;4992395;28;20030;-38
2022/11/30 06:05:57;;;;;;;25.30;10.90;;;8.20;99.90;;;;;;4992173;28;20478;-40
2022/11/30 06:08:24;;;;;;;20.08;9.90;;;8.10;99.90;;;;;;4992111;28;20033;-38
2022/11/30 06:10:49;;;;;;;25.63;10.43;;;8.10;99.90;;;;;;4993712;28;20035;-32
2022/11/30 06:13:15;;;;;;;22.13;10.77;;;8.10;99.90;;;;;;4994153;28;20072;-36
2022/11/30 06:15:43;;;;;;;20.92;10.38;;;8.10;99.90;;;;;;4993830;28;20573;-39
2022/11/30 06:18:11;;;;;;;18.75;10.20;;;8.10;99.90;;;;;;4992081;28;20037;-40
2022/11/30 06:20:37;;;;;;;26.00;9.95;;;8.00;99.90;;;;;;4992577;28;20505;-39
2022/11/30 06:23:03;;;;;;;19.90;9.88;;;8.00;99.90;;;;;;4955413;28;20486;-42
2022/11/30 06:25:29;;;;;;;19.27;10.23;;;8.00;99.90;;;;;;4980452;28;20049;-40
2022/11/30 06:27:55;;;;;;;18.92;9.10;;;8.00;99.90;;;;;;4992707;28;20052;-41
2022/11/30 06:30:20;;;;;;;20.35;9.52;;;8.00;99.90;;;;;;4992077;28;20153;-41
2022/11/30 06:32:48;;;;;;;20.50;9.52;;;7.90;99.90;;;;;;4990682;28;20049;-40
2022/11/30 06:35:14;;;;;;;20.63;10.25;;;7.90;99.90;;;;;;4993061;28;20084;-41
2022/11/30 06:37:40;;;;;;;21.73;9.77;;;7.80;99.90;;;;;;4992532;28;20041;-41
2022/11/30 06:40:07;;;;;;;24.95;10.40;;;7.80;99.90;;;;;;4991145;28;20031;-39
2022/11/30 06:42:34;;;;;;;20.30;10.90;;;7.90;99.90;;;;;;4991392;28;20479;-41
2022/11/30 06:44:59;;;;;;;18.73;9.65;;;7.90;99.90;;;;;;4990497;28;20030;-42
2022/11/30 06:47:26;;;;;;;22.42;9.60;;;7.90;99.90;;;;;;4992554;28;20030;-42
2022/11/30 06:49:53;;;;;;;18.20;9.85;;;7.90;99.90;;;;;;4967456;28;20027;-38
2022/11/30 06:52:18;;;;;;;20.30;10.02;;;8.00;99.90;;;;;;4963671;28;20041;-39
2022/11/30 06:54:44;;;;;;;22.92;11.35;;;8.00;99.90;;;;;;4988838;28;20031;-40
2022/11/30 06:57:10;;;;;;;26.98;11.27;;;7.90;99.90;;;;;;4986389;28;20058;-42
2022/11/30 06:59:45;;;;;;;23.98;10.60;;;8.00;99.90;;;;;;4990346;28;20030;-39
2022/11/30 07:02:12;;;;;;;22.65;11.05;;;8.00;99.90;;;;;;4989422;28;20077;-37
2022/11/30 07:04:56;;;;;;;18.88;8.75;;;8.00;99.90;;;;;;4956618;28;20106;-41
2022/11/30 07:07:22;;;;;;;24.05;10.80;;;8.00;99.90;;;;;;4975775;28;20031;-40
2022/11/30 07:09:49;;;;;;;18.88;10.10;;;8.00;99.90;;;;;;4992361;28;20029;-42
2022/11/30 07:12:15;;;;;;;20.65;10.27;;;8.00;99.90;;;;;;4989782;28;20034;-42
2022/11/30 07:14:40;;;;;;;18.20;9.82;;;8.00;99.90;;;;;;4992040;28;20582;-42
2022/11/30 07:17:06;;;;;;;23.35;10.20;;;8.10;99.90;;;;;;4990967;28;20031;-39
2022/11/30 07:19:35;;;;;;;19.73;9.50;;;8.00;99.90;;;;;;4992228;28;20027;-41
2022/11/30 07:22:01;;;;;;;19.33;9.70;;;8.10;99.90;;;;;;4991735;28;20117;-42
2022/11/30 07:27:11;;;;;;;21.52;10.40;;;8.00;99.90;;;;;;4992984;28;20084;-41
2022/11/30 07:29:37;;;;;;;22.20;9.60;;;8.10;99.90;;;;;;4991130;28;20517;-43
2022/11/30 07:32:02;;;;;;;22.38;10.73;;;8.10;99.90;;;;;;4988676;28;20106;-41
2022/11/30 07:34:28;;;;;;;24.20;9.38;;;8.10;99.90;;;;;;4991111;28;20037;-42
2022/11/30 07:36:54;;;;;;;25.23;9.98;;;8.10;99.90;;;;;;4989758;28;20033;-39
2022/11/30 07:39:19;;;;;;;18.10;8.57;;;8.10;99.90;;;;;;4983373;28;20037;-37
2022/11/30 07:41:45;;;;;;;20.38;10.05;;;8.10;99.90;;;;;;4991959;28;20023;-40
2022/11/30 07:44:11;;;;;;;21.92;10.88;;;8.10;99.90;;;;;;4990878;28;20121;-42
2022/11/30 07:46:37;;;;;;;20.98;10.23;;;8.10;99.90;;;;;;4991029;28;20393;-43
2022/11/30 07:49:09;;;;;;;18.70;9.23;;;8.10;99.90;;;;;;4996854;28;20022;-42
2022/11/30 07:51:35;;;;;;;20.23;9.88;;;8.10;99.90;;;;;;4995898;28;20022;-41
2022/11/30 07:54:01;;;;;;;28.35;10.85;;;8.10;99.90;;;;;;4997807;28;20387;-43
2022/11/30 07:56:28;;;;;;;21.30;10.18;;;8.10;99.90;;;;;;5016425;28;20056;-41
2022/11/30 07:58:58;;;;;;;21.98;11.00;;;8.10;99.90;;;;;;5003537;28;20093;-41
2022/11/30 08:01:27;;;;;;;21.02;10.02;;;8.10;99.90;;;;;;4995833;28;20038;-42
2022/11/30 08:03:53;;;;;;;26.70;10.10;;;8.20;99.90;;;;;;4993064;28;20049;-42
2022/11/30 08:06:21;;;;;;;24.33;10.38;;;8.10;99.90;;;;;;4995497;28;20110;-41
2022/11/30 08:08:48;;;;;;;;;;;8.20;99.90;;;;;;4996047;28;20026;-43
2022/11/30 08:11:22;;;;;;;20.40;9.80;;;8.20;99.90;;;;;;4978741;28;19906;-40
2022/11/30 08:13:48;;;;;;;19.23;9.35;;;8.20;99.90;;;;;;4995368;28;20357;-43
2022/11/30 08:16:19;;;;;;;21.23;9.40;;;8.20;99.90;;;;;;4994366;28;20121;-42
2022/11/30 08:18:45;;;;;;;19.90;10.48;;;8.30;99.90;;;;;;4992480;28;20092;-41
2022/11/30 08:21:12;;;;;;;19.52;9.93;;;8.30;99.90;;;;;;4992559;28;20483;-39
2022/11/30 08:23:40;;;;;;;19.92;9.57;;;8.40;99.90;;;;;;4994916;28;20026;-42
2022/11/30 08:26:17;;;;;;;20.40;9.43;;;8.40;99.90;;;;;;4988175;28;20506;-44
2022/11/30 08:28:44;;;;;;;18.23;7.90;;;8.50;99.90;;;;;;4974642;28;20489;-44
2022/11/30 08:31:22;;;;;;;21.50;10.23;;;8.60;99.90;;;;;;4987915;28;20109;-42
2022/11/30 08:33:48;;;;;;;24.42;11.75;;;8.60;99.90;;;;;;4974883;28;20306;-44
2022/11/30 08:36:16;;;;;;;24.92;10.25;;;8.70;99.90;;;;;;4983298;28;20085;-56
2022/11/30 08:38:43;;;;;;;;;;;8.70;99.90;;;;;;4976884;28;20431;-41
2022/11/30 08:41:10;;;;;;;26.58;10.30;;;8.70;99.90;;;;;;4975981;28;19914;-42
2022/11/30 08:43:36;;;;;;;31.67;12.57;;;8.70;99.90;;;;;;4973526;28;20069;-44
2022/11/30 08:46:04;;;;;;;27.63;11.93;;;8.80;99.90;;;;;;4978227;28;20054;-36
2022/11/30 08:48:30;;;;;;;25.83;10.40;;;8.70;99.90;;;;;;4979242;28;20026;-35
2022/11/30 08:51:00;;;;;;;24.17;10.65;;;8.70;99.90;;;;;;4969596;28;20486;-36
2022/11/30 08:53:25;;;;;;;20.52;10.32;;;8.80;99.90;;;;;;4975814;28;20042;-36
2022/11/30 08:55:55;;;;;;;25.92;11.02;;;8.80;99.90;;;;;;4977257;28;20026;-33
2022/11/30 08:58:21;;;;;;;24.25;10.63;;;8.90;99.90;;;;;;4974511;28;20030;-40
2022/11/30 09:00:47;;;;;;;30.65;12.10;;;8.90;99.90;;;;;;4974384;28;20365;-40
2022/11/30 09:03:12;;;;;;;36.13;12.60;;;8.90;99.90;;;;;;4970147;28;20062;-43
2022/11/30 09:05:38;;;;;;;25.27;12.27;;;8.90;99.90;;;;;;4974822;28;20419;-40
2022/11/30 09:08:04;;;;;;;31.05;12.73;;;8.90;99.90;;;;;;4975806;28;20033;-40
2022/11/30 09:10:29;;;;;;;26.55;11.50;;;8.90;99.90;;;;;;4975714;28;20500;-41
2022/11/30 09:12:55;;;;;;;28.05;11.43;;;8.90;99.90;;;;;;4961062;28;20443;-41
2022/11/30 09:15:20;;;;;;;26.13;12.02;;;8.90;99.90;;;;;;4974750;28;20454;-42
2022/11/30 09:17:46;;;;;;;28.95;12.57;;;8.90;99.90;;;;;;4973406;28;20134;-42
2022/11/30 09:20:12;;;;;;;30.35;13.25;;;9.00;99.90;;;;;;4970462;28;20058;-50
2022/11/30 09:22:38;;;;;;;24.88;11.82;;;9.00;99.90;;;;;;4975143;28;20109;-45
2022/11/30 09:25:05;;;;;;;28.60;11.68;;;9.00;99.90;;;;;;4974620;28;20047;-42
2022/11/30 09:27:31;;;;;;;31.73;12.00;;;9.10;99.90;;;;;;4989606;28;20038;-41
2022/11/30 09:29:57;;;;;;;23.23;12.07;;;9.10;99.90;;;;;;4991756;28;20418;-42
2022/11/30 09:32:23;;;;;;;25.85;12.60;;;9.00;99.90;;;;;;4993093;28;20085;-35
2022/11/30 09:34:48;;;;;;;22.63;13.05;;;9.10;99.90;;;;;;4994592;28;20089;-38
2022/11/30 09:37:14;;;;;;;25.70;11.77;;;9.10;99.90;;;;;;4989434;28;20038;-40
2022/11/30 09:39:39;;;;;;;25.48;11.98;;;9.10;99.90;;;;;;4993108;28;20038;-37
2022/11/30 09:42:31;;;;;;;31.58;13.70;;;9.10;99.90;;;;;;4992689;28;20479;-37
2022/11/30 09:45:16;;;;;;;30.98;12.75;;;9.10;99.90;;;;;;4988378;28;20085;-34
2022/11/30 09:47:58;;;;;;;26.85;13.32;;;9.10;99.90;;;;;;4991822;28;20576;-34
2022/11/30 09:50:28;;;;;;;25.42;12.43;;;9.20;99.90;;;;;;4992812;28;20026;-38
2022/11/30 09:53:04;;;;;;;25.63;12.40;;;9.20;99.90;;;;;;4994915;28;20400;-46
2022/11/30 09:55:38;;;;;;;33.38;12.40;;;9.30;99.90;;;;;;4993328;28;20437;-44
2022/11/30 09:58:05;;;;;;;26.23;12.98;;;9.20;99.90;;;;;;4992752;28;20029;-47
2022/11/30 10:00:33;;;;;;;33.50;13.27;;;9.20;99.90;;;;;;4991355;28;20034;-42
2022/11/30 10:03:04;;;;;;;30.77;13.02;;;9.30;99.90;;;;;;4993258;28;20312;-43
2022/11/30 10:05:42;;;;;;;29.73;12.05;;;9.40;99.90;;;;;;4987019;28;20102;-39
2022/11/30 10:08:35;;;;;;;27.67;12.35;;;9.50;99.90;;;;;;4999366;28;20105;-34
2022/11/30 10:11:04;;;;;;;21.58;10.95;;;9.50;99.90;;;;;;4999837;28;20093;-39
2022/11/30 10:13:48;;;;;;;22.83;11.52;;;9.60;99.90;;;;;;4992995;28;20080;-34
2022/11/30 10:16:31;;;;;;;24.40;11.35;;;9.60;99.90;;;;;;4990581;28;20034;-41
2022/11/30 10:19:16;;;;;;;23.52;12.57;;;9.60;99.90;;;;;;4987379;28;20038;-39
2022/11/30 10:22:06;;;;;;;23.70;12.32;;;9.50;99.90;;;;;;4991441;28;20037;-42
2022/11/30 10:24:56;;;;;;;27.35;12.10;;;9.60;99.90;;;;;;4991849;28;20030;-41
2022/11/30 10:27:31;;;;;;;28.42;12.88;;;9.60;99.90;;;;;;4983260;28;20046;-42
2022/11/30 10:30:00;;;;;;;22.00;11.32;;;9.60;99.90;;;;;;4988203;28;20076;-44
2022/11/30 10:32:36;;;;;;;23.17;10.50;;;9.50;99.90;;;;;;4986556;28;20472;-43
2022/11/30 10:35:16;;;;;;;26.77;11.15;;;9.60;99.90;;;;;;5000596;28;20027;-44
2022/11/30 10:37:43;;;;;;;27.60;11.48;;;9.70;99.90;;;;;;4989933;28;20034;-45
2022/11/30 10:40:27;;;;;;;25.58;10.48;;;9.80;99.90;;;;;;4972542;28;20044;-45
2022/11/30 10:43:04;;;;;;;28.50;11.90;;;9.70;99.90;;;;;;4984287;28;20034;-54
2022/11/30 10:45:32;;;;;;;26.52;12.18;;;9.80;99.90;;;;;;4991087;28;20536;-52
2022/11/30 10:48:51;;;;;;;25.98;11.07;;;9.80;99.90;;;;;;4991514;28;20041;-41
2022/11/30 10:51:16;;;;;;;31.75;13.52;;;9.90;99.90;;;;;;4899440;29;20069;-42
2022/11/30 10:53:42;;;;;;;34.40;11.00;;;9.90;99.90;;;;;;4969159;28;20113;-41
2022/11/30 10:56:13;;;;;;;26.00;11.40;;;10.00;99.90;;;;;;5003298;28;20023;-41
2022/11/30 10:58:43;;;;;;;25.38;11.43;;;10.00;99.90;;;;;;4992633;28;20037;-43
2022/11/30 11:01:28;;;;;;;27.88;11.98;;;10.10;99.90;;;;;;4991608;28;20263;-40
2022/11/30 11:04:13;;;;;;;23.83;10.85;;;10.10;99.90;;;;;;4992102;28;20569;-43
2022/11/30 11:06:57;;;;;;;26.38;11.40;;;10.20;99.90;;;;;;4992560;28;20029;-42
2022/11/30 11:09:32;;;;;;;23.83;11.88;;;10.10;99.90;;;;;;4981766;28;20482;-41
2022/11/30 11:12:04;;;;;;;24.05;11.07;;;10.10;99.90;;;;;;4992605;28;20027;-49
2022/11/30 11:14:31;;;;;;;19.10;10.27;;;10.10;99.90;;;;;;4968654;28;20049;-40
2022/11/30 11:16:59;;;;;;;22.55;11.82;;;10.10;99.90;;;;;;4990101;28;20061;-45
2022/11/30 11:19:35;;;;;;;;;;;10.20;99.90;;;;;;4992005;28;20019;-41
2022/11/30 11:22:06;;;;;;;29.65;11.70;;;10.20;99.90;;;;;;4992862;28;19962;-42
2022/11/30 11:24:32;;;;;;;21.17;11.00;;;10.20;99.90;;;;;;4997162;28;20427;-44
2022/11/30 11:26:58;;;;;;;22.77;11.43;;;10.20;99.90;;;;;;4996758;28;20522;-47
2022/11/30 11:29:34;;;;;;;24.52;11.70;;;10.20;99.90;;;;;;4996016;28;20050;-43
2022/11/30 11:32:21;;;;;;;23.38;12.35;;;10.10;99.90;;;;;;4997162;28;20080;-42
2022/11/30 11:34:47;;;;;;;25.80;13.05;;;10.00;99.90;;;;;;4996083;28;20035;-42
2022/11/30 11:37:21;;;;;;;29.00;10.80;;;9.90;99.90;;;;;;4997236;28;20033;-41
2022/11/30 11:39:58;;;;;;;26.00;11.85;;;10.00;99.90;;;;;;4996873;28;20042;-42
2022/11/30 11:42:28;;;;;;;24.15;12.35;;;10.00;99.90;;;;;;4997053;28;20494;-42
2022/11/30 11:44:56;;;;;;;24.48;11.65;;;10.00;99.90;;;;;;4978870;28;20489;-44
2022/11/30 11:47:25;;;;;;;27.02;12.57;;;10.00;99.90;;;;;;4996765;28;20057;-58
2022/11/30 11:50:11;;;;;;;28.17;12.85;;;10.00;99.90;;;;;;4996933;28;20478;-46
2022/11/30 11:52:37;;;;;;;22.75;12.23;;;10.00;99.90;;;;;;4993778;28;20502;-40
2022/11/30 11:55:08;;;;;;;25.63;11.38;;;10.00;99.90;;;;;;4996091;28;20065;-44
2022/11/30 11:57:44;;;;;;;23.23;11.32;;;10.00;99.90;;;;;;4996683;28;20035;-40
2022/11/30 12:00:15;;;;;;;25.70;11.57;;;9.90;99.90;;;;;;4995656;28;20100;-44
2022/11/30 12:03:13;;;;;;;27.00;11.73;;;9.90;99.90;;;;;;4996516;28;20554;-42
2022/11/30 12:05:44;;;;;;;26.20;12.95;;;9.90;99.90;;;;;;4994903;28;20121;-43
2022/11/30 12:08:34;;;;;;;23.85;11.65;;;9.90;99.90;;;;;;4994198;28;20459;-43
2022/11/30 12:11:13;;;;;;;27.55;12.02;;;10.00;99.90;;;;;;4988396;28;20078;-44
2022/11/30 12:13:41;;;;;;;27.10;12.50;;;10.10;99.90;;;;;;4977197;28;20057;-42
2022/11/30 12:16:18;;;;;;;;;;;10.20;99.90;;;;;;4996033;28;20073;-42
2022/11/30 12:18:53;;;;;;;;;;;10.20;99.90;;;;;;4996693;28;19937;-43
2022/11/30 12:21:56;;;;;;;27.40;11.40;;;10.20;99.90;;;;;;4996210;28;19941;-45
2022/11/30 12:24:27;;;;;;;27.77;13.60;;;10.20;99.90;;;;;;4994999;28;20118;-42
2022/11/30 12:27:02;;;;;;;28.88;12.23;;;10.10;99.90;;;;;;4994932;28;20406;-42
2022/11/30 12:29:39;;;;;;;28.50;12.70;;;10.00;99.90;;;;;;4994847;28;20033;-43
2022/11/30 12:32:33;;;;;;;30.10;13.02;;;10.00;99.90;;;;;;4996005;28;20030;-45
2022/11/30 12:35:17;;;;;;;30.30;14.52;;;10.10;99.90;;;;;;5005339;28;20109;-46
2022/11/30 12:37:45;;;;;;;27.23;13.35;;;10.20;99.90;;;;;;5013738;28;20109;-40
2022/11/30 12:40:29;;;;;;;26.60;12.23;;;10.30;99.90;;;;;;4992116;28;20038;-42
2022/11/30 12:43:22;;;;;;;25.33;12.20;;;10.30;99.90;;;;;;4993877;28;20035;-44
2022/11/30 12:45:51;;;;;;;23.80;11.40;;;10.20;99.90;;;;;;4993919;28;20030;-39
2022/11/30 12:48:37;;;;;;;27.77;12.50;;;10.10;99.90;;;;;;4995804;28;20105;-38
2022/11/30 12:51:12;;;;;;;26.08;12.90;;;9.90;99.90;;;;;;4977965;28;20220;-39
2022/11/30 12:53:44;;;;;;;31.00;11.90;;;9.70;99.90;;;;;;4995165;28;20148;-34
2022/11/30 12:56:30;;;;;;;27.92;12.65;;;9.70;99.90;;;;;;5009540;28;20504;-36
2022/11/30 12:59:26;;;;;;;23.27;12.05;;;9.80;99.90;;;;;;4994993;28;20035;-38